sensor_id;sensor_type;location;lat;lon;timestamp;noise_LAeq;noise_LA_min;noise_LA_max;noise_LA01;noise_LA95
48967;Laerm;46511;53.148;8.204;2024-01-10T00:01:35;43.17;40.43;48.20;;
48967;Laerm;46511;53.148;8.204;2024-01-10T00:04:07;43.32;40.71;47.36;;
48967;Laerm;46511;53.148;8.204;2024-01-10T00:06:38;43.34;40.33;45.07;;
48967;Laerm;46511;53.148;8.204;2024-01-10T00:09:09;43.33;40.71;44.83;;
48967;Laerm;46511;53.148;8.204;2024-01-10T00:11:41;43.93;40.71;55.90;;
48967;Laerm;46511;53.148;8.204;2024-01-10T00:14:12;43.51;40.80;45.57;;
48967;Laerm;46511;53.148;8.204;2024-01-10T00:16:44;43.31;40.80;45.04;;
48967;Laerm;46511;53.148;8.204;2024-01-10T00:19:15;43.31;40.53;45.23;;
48967;Laerm;46511;53.148;8.204;2024-01-10T00:21:46;43.36;40.33;45.83;;
48967;Laerm;46511;53.148;8.204;2024-01-10T00:24:17;43.32;40.33;47.65;;
48967;Laerm;46511;53.148;8.204;2024-01-10T00:26:49;43.49;40.62;49.15;;
48967;Laerm;46511;53.148;8.204;2024-01-10T00:29:20;43.49;41.06;45.27;;
48967;Laerm;46511;53.148;8.204;2024-01-10T00:31:51;43.06;40.43;44.94;;
48967;Laerm;46511;53.148;8.204;2024-01-10T00:34:24;43.51;40.62;45.14;;
48967;Laerm;46511;53.148;8.204;2024-01-10T00:36:55;43.53;40.80;45.33;;
48967;Laerm;46511;53.148;8.204;2024-01-10T00:39:26;43.73;40.53;46.07;;
48967;Laerm;46511;53.148;8.204;2024-01-10T00:41:58;43.60;41.06;44.97;;
48967;Laerm;46511;53.148;8.204;2024-01-10T00:44:29;43.31;40.80;45.57;;
48967;Laerm;46511;53.148;8.204;2024-01-10T00:47:00;43.62;39.92;45.33;;
48967;Laerm;46511;53.148;8.204;2024-01-10T00:49:32;43.23;40.71;47.86;;
48967;Laerm;46511;53.148;8.204;2024-01-10T00:52:03;43.42;40.62;45.33;;
48967;Laerm;46511;53.148;8.204;2024-01-10T00:54:35;47.11;41.06;69.15;;
48967;Laerm;46511;53.148;8.204;2024-01-10T00:57:06;43.42;40.89;45.17;;
48967;Laerm;46511;53.148;8.204;2024-01-10T00:59:37;43.86;40.80;54.31;;
48967;Laerm;46511;53.148;8.204;2024-01-10T01:02:09;43.59;40.80;46.10;;
48967;Laerm;46511;53.148;8.204;2024-01-10T01:04:40;43.82;41.38;48.94;;
48967;Laerm;46511;53.148;8.204;2024-01-10T01:07:11;51.34;40.89;66.92;;
48967;Laerm;46511;53.148;8.204;2024-01-10T01:09:43;49.53;40.80;63.91;;
48967;Laerm;46511;53.148;8.204;2024-01-10T01:12:14;43.25;40.33;45.97;;
48967;Laerm;46511;53.148;8.204;2024-01-10T01:14:45;43.29;40.03;46.59;;
48967;Laerm;46511;53.148;8.204;2024-01-10T01:17:17;43.29;39.92;47.81;;
48967;Laerm;46511;53.148;8.204;2024-01-10T01:19:48;43.29;40.13;46.64;;
48967;Laerm;46511;53.148;8.204;2024-01-10T01:22:20;43.38;40.53;55.32;;
48967;Laerm;46511;53.148;8.204;2024-01-10T01:24:52;50.51;40.53;69.49;;
48967;Laerm;46511;53.148;8.204;2024-01-10T01:27:23;43.68;41.30;51.17;;
48967;Laerm;46511;53.148;8.204;2024-01-10T01:29:54;43.34;40.23;53.17;;
48967;Laerm;46511;53.148;8.204;2024-01-10T01:32:26;43.39;40.03;50.70;;
48967;Laerm;46511;53.148;8.204;2024-01-10T01:34:57;43.35;39.92;45.83;;
48967;Laerm;46511;53.148;8.204;2024-01-10T01:37:28;43.20;40.33;45.04;;
48967;Laerm;46511;53.148;8.204;2024-01-10T01:40:00;42.84;39.81;44.76;;
48967;Laerm;46511;53.148;8.204;2024-01-10T01:42:31;42.98;40.33;45.17;;
48967;Laerm;46511;53.148;8.204;2024-01-10T01:45:03;42.77;40.23;44.51;;
48967;Laerm;46511;53.148;8.204;2024-01-10T01:47:34;43.04;39.92;48.69;;
48967;Laerm;46511;53.148;8.204;2024-01-10T01:50:06;43.11;39.81;45.30;;
48967;Laerm;46511;53.148;8.204;2024-01-10T01:52:38;43.78;40.13;55.01;;
48967;Laerm;46511;53.148;8.204;2024-01-10T01:55:10;43.33;39.46;54.59;;
48967;Laerm;46511;53.148;8.204;2024-01-10T01:57:41;43.09;40.33;58.35;;
48967;Laerm;46511;53.148;8.204;2024-01-10T02:00:13;42.93;39.81;54.31;;
48967;Laerm;46511;53.148;8.204;2024-01-10T02:02:45;43.05;39.70;51.57;;
48967;Laerm;46511;53.148;8.204;2024-01-10T02:05:18;43.02;40.43;45.39;;
48967;Laerm;46511;53.148;8.204;2024-01-10T02:07:50;42.85;39.58;44.94;;
48967;Laerm;46511;53.148;8.204;2024-01-10T02:10:21;43.14;40.13;45.77;;
48967;Laerm;46511;53.148;8.204;2024-01-10T02:12:52;43.38;40.98;48.21;;
48967;Laerm;46511;53.148;8.204;2024-01-10T02:15:24;43.46;40.53;48.51;;
48967;Laerm;46511;53.148;8.204;2024-01-10T02:17:55;43.46;40.80;49.10;;
48967;Laerm;46511;53.148;8.204;2024-01-10T02:20:27;43.39;40.53;45.34;;
48967;Laerm;46511;53.148;8.204;2024-01-10T02:22:58;43.73;41.06;50.93;;
48967;Laerm;46511;53.148;8.204;2024-01-10T02:25:29;43.67;40.53;56.68;;
48967;Laerm;46511;53.148;8.204;2024-01-10T02:28:00;43.63;40.80;55.37;;
48967;Laerm;46511;53.148;8.204;2024-01-10T02:30:32;43.69;40.13;45.72;;
48967;Laerm;46511;53.148;8.204;2024-01-10T02:33:04;43.50;40.62;49.81;;
48967;Laerm;46511;53.148;8.204;2024-01-10T02:35:35;43.77;40.89;52.30;;
48967;Laerm;46511;53.148;8.204;2024-01-10T02:38:06;43.40;40.89;45.99;;
48967;Laerm;46511;53.148;8.204;2024-01-10T02:40:38;43.49;40.62;54.22;;
48967;Laerm;46511;53.148;8.204;2024-01-10T02:43:09;43.40;40.53;47.54;;
48967;Laerm;46511;53.148;8.204;2024-01-10T02:45:41;43.45;40.89;46.20;;
48967;Laerm;46511;53.148;8.204;2024-01-10T02:48:12;43.10;39.81;46.91;;
48967;Laerm;46511;53.148;8.204;2024-01-10T02:50:43;43.45;40.89;46.20;;
48967;Laerm;46511;53.148;8.204;2024-01-10T02:53:15;43.58;40.89;48.61;;
48967;Laerm;46511;53.148;8.204;2024-01-10T02:55:46;55.10;40.98;70.32;;
48967;Laerm;46511;53.148;8.204;2024-01-10T02:58:19;56.43;44.11;68.32;;
48967;Laerm;46511;53.148;8.204;2024-01-10T03:00:52;49.24;41.53;60.67;;
48967;Laerm;46511;53.148;8.204;2024-01-10T03:03:23;43.56;40.80;46.13;;
48967;Laerm;46511;53.148;8.204;2024-01-10T03:05:55;43.30;38.47;45.33;;
48967;Laerm;46511;53.148;8.204;2024-01-10T03:08:26;43.65;41.06;47.38;;
48967;Laerm;46511;53.148;8.204;2024-01-10T03:10:57;43.39;40.13;45.83;;
48967;Laerm;46511;53.148;8.204;2024-01-10T03:13:28;43.49;40.43;44.90;;
48967;Laerm;46511;53.148;8.204;2024-01-10T03:16:00;43.35;40.62;46.20;;
48967;Laerm;46511;53.148;8.204;2024-01-10T03:18:31;49.78;40.98;64.82;;
48967;Laerm;46511;53.148;8.204;2024-01-10T03:21:02;43.77;41.06;47.83;;
48967;Laerm;46511;53.148;8.204;2024-01-10T03:23:34;45.13;40.80;60.55;;
48967;Laerm;46511;53.148;8.204;2024-01-10T03:26:05;47.95;41.30;62.05;;
48967;Laerm;46511;53.148;8.204;2024-01-10T03:28:36;44.45;41.82;59.18;;
48967;Laerm;46511;53.148;8.204;2024-01-10T03:31:10;43.72;41.38;46.64;;
48967;Laerm;46511;53.148;8.204;2024-01-10T03:33:42;43.86;40.98;48.67;;
48967;Laerm;46511;53.148;8.204;2024-01-10T03:36:16;45.15;41.68;53.67;;
48967;Laerm;46511;53.148;8.204;2024-01-10T03:38:47;44.63;41.89;51.24;;
48967;Laerm;46511;53.148;8.204;2024-01-10T03:41:19;54.72;41.89;67.76;;
48967;Laerm;46511;53.148;8.204;2024-01-10T03:43:51;57.67;41.53;71.74;;
48967;Laerm;46511;53.148;8.204;2024-01-10T03:46:22;44.10;41.89;49.70;;
48967;Laerm;46511;53.148;8.204;2024-01-10T03:48:54;43.99;41.53;52.12;;
48967;Laerm;46511;53.148;8.204;2024-01-10T03:51:25;44.13;41.06;60.63;;
48967;Laerm;46511;53.148;8.204;2024-01-10T03:53:56;44.42;41.61;60.20;;
48967;Laerm;46511;53.148;8.204;2024-01-10T03:56:28;44.38;42.16;48.37;;
48967;Laerm;46511;53.148;8.204;2024-01-10T03:58:59;44.22;41.75;47.04;;
48967;Laerm;46511;53.148;8.204;2024-01-10T04:01:32;51.57;41.22;67.03;;
48967;Laerm;46511;53.148;8.204;2024-01-10T04:04:04;46.37;41.68;63.59;;
48967;Laerm;46511;53.148;8.204;2024-01-10T04:06:35;51.86;41.96;67.66;;
48967;Laerm;46511;53.148;8.204;2024-01-10T04:09:06;44.81;41.82;59.23;;
48967;Laerm;46511;53.148;8.204;2024-01-10T04:11:39;46.88;43.04;54.85;;
48967;Laerm;46511;53.148;8.204;2024-01-10T04:14:10;44.77;42.16;49.98;;
48967;Laerm;46511;53.148;8.204;2024-01-10T04:16:42;44.43;42.03;47.44;;
48967;Laerm;46511;53.148;8.204;2024-01-10T04:19:14;47.20;41.75;59.23;;
48967;Laerm;46511;53.148;8.204;2024-01-10T04:21:45;44.66;42.16;50.77;;
48967;Laerm;46511;53.148;8.204;2024-01-10T04:24:16;44.28;42.09;52.17;;
48967;Laerm;46511;53.148;8.204;2024-01-10T04:26:48;44.56;42.41;52.44;;
48967;Laerm;46511;53.148;8.204;2024-01-10T04:29:19;49.00;42.03;62.07;;
48967;Laerm;46511;53.148;8.204;2024-01-10T04:31:50;44.43;41.96;55.43;;
48967;Laerm;46511;53.148;8.204;2024-01-10T04:34:22;47.55;42.22;58.62;;
48967;Laerm;46511;53.148;8.204;2024-01-10T04:36:54;54.36;42.88;65.87;;
48967;Laerm;46511;53.148;8.204;2024-01-10T04:39:26;44.54;42.09;49.25;;
48967;Laerm;46511;53.148;8.204;2024-01-10T04:41:57;52.72;42.82;71.84;;
48967;Laerm;46511;53.148;8.204;2024-01-10T04:44:28;44.52;42.47;47.12;;
48967;Laerm;46511;53.148;8.204;2024-01-10T04:47:00;51.15;42.41;66.33;;
48967;Laerm;46511;53.148;8.204;2024-01-10T04:49:31;44.76;42.53;55.69;;
48967;Laerm;46511;53.148;8.204;2024-01-10T04:52:02;49.13;41.89;61.88;;
48967;Laerm;46511;53.148;8.204;2024-01-10T04:54:34;44.52;42.59;52.43;;
48967;Laerm;46511;53.148;8.204;2024-01-10T04:57:05;44.73;42.65;52.47;;
48967;Laerm;46511;53.148;8.204;2024-01-10T04:59:36;45.10;42.88;59.27;;
48967;Laerm;46511;53.148;8.204;2024-01-10T05:02:08;44.80;42.65;53.99;;
48967;Laerm;46511;53.148;8.204;2024-01-10T05:04:39;45.94;42.71;67.33;;
48967;Laerm;46511;53.148;8.204;2024-01-10T05:07:10;53.16;43.14;66.62;;
48967;Laerm;46511;53.148;8.204;2024-01-10T05:09:37;47.17;42.71;59.58;;
48967;Laerm;46511;53.148;8.204;2024-01-10T05:12:08;52.47;43.24;69.32;;
48967;Laerm;46511;53.148;8.204;2024-01-10T05:14:39;48.70;42.64;61.93;;
48967;Laerm;46511;53.148;8.204;2024-01-10T05:17:11;45.67;43.14;53.63;;
48967;Laerm;46511;53.148;8.204;2024-01-10T05:19:42;49.44;43.14;63.27;;
48967;Laerm;46511;53.148;8.204;2024-01-10T05:22:13;45.05;43.14;50.10;;
48967;Laerm;46511;53.148;8.204;2024-01-10T05:24:45;52.59;43.24;66.16;;
48967;Laerm;46511;53.148;8.204;2024-01-10T05:27:11;53.15;43.54;66.37;;
48967;Laerm;46511;53.148;8.204;2024-01-10T05:29:42;52.21;43.34;64.76;;
48967;Laerm;46511;53.148;8.204;2024-01-10T05:32:14;49.65;43.72;64.11;;
48967;Laerm;46511;53.148;8.204;2024-01-10T05:34:45;49.43;42.82;62.63;;
48967;Laerm;46511;53.148;8.204;2024-01-10T05:37:16;45.62;43.39;53.45;;
48967;Laerm;46511;53.148;8.204;2024-01-10T05:39:48;53.50;43.68;69.69;;
48967;Laerm;46511;53.148;8.204;2024-01-10T05:42:20;55.61;43.86;70.31;;
48967;Laerm;46511;53.148;8.204;2024-01-10T05:44:51;55.54;43.29;69.96;;
48967;Laerm;46511;53.148;8.204;2024-01-10T05:47:23;50.41;43.68;63.19;;
48967;Laerm;46511;53.148;8.204;2024-01-10T05:49:54;52.82;43.99;66.12;;
48967;Laerm;46511;53.148;8.204;2024-01-10T05:52:26;52.61;44.03;63.95;;
48967;Laerm;46511;53.148;8.204;2024-01-10T05:54:57;56.45;44.35;69.38;;
48967;Laerm;46511;53.148;8.204;2024-01-10T05:57:24;52.28;44.35;64.07;;
48967;Laerm;46511;53.148;8.204;2024-01-10T05:59:55;52.91;44.35;65.72;;
48967;Laerm;46511;53.148;8.204;2024-01-10T06:02:28;51.05;44.27;61.72;;
48967;Laerm;46511;53.148;8.204;2024-01-10T06:04:59;55.25;44.03;66.59;;
48967;Laerm;46511;53.148;8.204;2024-01-10T06:07:30;54.60;43.86;66.90;;
48967;Laerm;46511;53.148;8.204;2024-01-10T06:10:02;54.44;44.62;69.15;;
48967;Laerm;46511;53.148;8.204;2024-01-10T06:12:34;53.78;44.19;63.24;;
48967;Laerm;46511;53.148;8.204;2024-01-10T06:15:06;53.93;44.69;65.95;;
48967;Laerm;46511;53.148;8.204;2024-01-10T06:17:37;52.50;44.72;63.45;;
48967;Laerm;46511;53.148;8.204;2024-01-10T06:20:09;58.44;44.90;73.25;;
48967;Laerm;46511;53.148;8.204;2024-01-10T06:22:41;57.61;45.11;67.19;;
48967;Laerm;46511;53.148;8.204;2024-01-10T06:25:13;52.89;44.19;64.68;;
48967;Laerm;46511;53.148;8.204;2024-01-10T06:27:44;55.66;44.87;65.89;;
48967;Laerm;46511;53.148;8.204;2024-01-10T06:30:15;52.68;44.80;62.56;;
48967;Laerm;46511;53.148;8.204;2024-01-10T06:32:47;55.32;45.17;66.20;;
48967;Laerm;46511;53.148;8.204;2024-01-10T06:35:18;53.27;45.11;63.90;;
48967;Laerm;46511;53.148;8.204;2024-01-10T06:37:49;54.50;44.80;67.91;;
48967;Laerm;46511;53.148;8.204;2024-01-10T06:40:21;57.94;45.48;73.76;;
48967;Laerm;46511;53.148;8.204;2024-01-10T06:42:53;56.21;45.20;71.56;;
48967;Laerm;46511;53.148;8.204;2024-01-10T06:45:24;53.38;45.04;72.32;;
48967;Laerm;46511;53.148;8.204;2024-01-10T06:47:56;58.16;44.87;70.90;;
48967;Laerm;46511;53.148;8.204;2024-01-10T06:50:27;58.58;45.51;69.80;;
48967;Laerm;46511;53.148;8.204;2024-01-10T06:52:58;58.01;46.38;68.09;;
48967;Laerm;46511;53.148;8.204;2024-01-10T06:55:30;56.47;44.97;65.97;;
48967;Laerm;46511;53.148;8.204;2024-01-10T06:58:01;55.82;44.43;67.34;;
48967;Laerm;46511;53.148;8.204;2024-01-10T07:00:34;60.25;47.50;67.39;;
48967;Laerm;46511;53.148;8.204;2024-01-10T07:03:05;57.45;45.75;68.07;;
48967;Laerm;46511;53.148;8.204;2024-01-10T07:05:36;59.33;46.59;70.28;;
48967;Laerm;46511;53.148;8.204;2024-01-10T07:08:08;58.22;45.33;67.51;;
48967;Laerm;46511;53.148;8.204;2024-01-10T07:10:39;55.29;44.65;65.97;;
48967;Laerm;46511;53.148;8.204;2024-01-10T07:13:10;56.71;44.39;66.11;;
48967;Laerm;46511;53.148;8.204;2024-01-10T07:15:42;54.41;43.81;66.71;;
48967;Laerm;46511;53.148;8.204;2024-01-10T07:18:13;55.78;44.76;65.45;;
48967;Laerm;46511;53.148;8.204;2024-01-10T07:20:44;57.90;48.88;69.99;;
48967;Laerm;46511;53.148;8.204;2024-01-10T07:23:15;58.23;44.90;72.80;;
48967;Laerm;46511;53.148;8.204;2024-01-10T07:25:47;56.84;44.07;69.35;;
48967;Laerm;46511;53.148;8.204;2024-01-10T07:28:19;55.32;44.23;67.38;;
48967;Laerm;46511;53.148;8.204;2024-01-10T07:30:50;57.49;45.01;74.44;;
48967;Laerm;46511;53.148;8.204;2024-01-10T07:33:22;59.48;44.65;74.36;;
48967;Laerm;46511;53.148;8.204;2024-01-10T07:35:53;57.98;45.23;69.91;;
48967;Laerm;46511;53.148;8.204;2024-01-10T07:38:26;53.62;45.11;65.31;;
48967;Laerm;46511;53.148;8.204;2024-01-10T07:40:57;56.31;44.65;69.01;;
48967;Laerm;46511;53.148;8.204;2024-01-10T07:43:30;54.58;43.90;67.81;;
48967;Laerm;46511;53.148;8.204;2024-01-10T07:45:56;50.17;44.19;62.47;;
48967;Laerm;46511;53.148;8.204;2024-01-10T07:48:27;57.28;44.15;70.66;;
48967;Laerm;46511;53.148;8.204;2024-01-10T07:50:56;57.03;44.87;67.14;;
48967;Laerm;46511;53.148;8.204;2024-01-10T07:53:28;56.98;44.58;67.21;;
48967;Laerm;46511;53.148;8.204;2024-01-10T07:55:59;56.38;44.43;69.07;;
48967;Laerm;46511;53.148;8.204;2024-01-10T07:58:30;56.15;44.65;70.42;;
48967;Laerm;46511;53.148;8.204;2024-01-10T08:01:01;58.21;44.19;66.89;;
48967;Laerm;46511;53.148;8.204;2024-01-10T08:03:33;55.03;43.90;67.80;;
48967;Laerm;46511;53.148;8.204;2024-01-10T08:06:05;56.03;43.49;68.22;;
48967;Laerm;46511;53.148;8.204;2024-01-10T08:08:37;49.12;43.64;62.66;;
48967;Laerm;46511;53.148;8.204;2024-01-10T08:11:08;54.60;43.58;75.23;;
48967;Laerm;46511;53.148;8.204;2024-01-10T08:13:40;57.44;43.99;74.47;;
48967;Laerm;46511;53.148;8.204;2024-01-10T08:16:12;54.53;43.90;64.91;;
48967;Laerm;46511;53.148;8.204;2024-01-10T08:18:43;56.85;44.47;67.00;;
48967;Laerm;46511;53.148;8.204;2024-01-10T08:21:16;61.03;44.27;72.28;;
48967;Laerm;46511;53.148;8.204;2024-01-10T08:23:48;56.22;44.31;71.47;;
48967;Laerm;46511;53.148;8.204;2024-01-10T08:26:19;53.46;44.07;65.13;;
48967;Laerm;46511;53.148;8.204;2024-01-10T08:28:50;53.03;44.15;67.20;;
48967;Laerm;46511;53.148;8.204;2024-01-10T08:31:22;55.22;44.51;72.35;;
48967;Laerm;46511;53.148;8.204;2024-01-10T08:33:54;57.92;49.41;72.69;;
48967;Laerm;46511;53.148;8.204;2024-01-10T08:36:25;56.01;45.57;66.84;;
48967;Laerm;46511;53.148;8.204;2024-01-10T08:38:56;60.19;44.83;71.27;;
48967;Laerm;46511;53.148;8.204;2024-01-10T08:41:27;61.16;44.07;74.84;;
48967;Laerm;46511;53.148;8.204;2024-01-10T08:43:59;57.54;44.58;67.55;;
48967;Laerm;46511;53.148;8.204;2024-01-10T08:46:31;65.75;49.65;82.62;;
48967;Laerm;46511;53.148;8.204;2024-01-10T08:49:02;66.49;45.99;86.51;;
48967;Laerm;46511;53.148;8.204;2024-01-10T08:51:34;57.18;44.15;70.31;;
48967;Laerm;46511;53.148;8.204;2024-01-10T08:54:05;57.59;44.27;69.02;;
48967;Laerm;46511;53.148;8.204;2024-01-10T08:56:36;52.85;43.90;67.22;;
48967;Laerm;46511;53.148;8.204;2024-01-10T08:59:08;58.84;45.01;69.10;;
48967;Laerm;46511;53.148;8.204;2024-01-10T09:01:39;56.76;43.49;68.20;;
48967;Laerm;46511;53.148;8.204;2024-01-10T09:04:10;55.91;44.47;64.47;;
48967;Laerm;46511;53.148;8.204;2024-01-10T09:06:41;53.08;43.58;64.83;;
48967;Laerm;46511;53.148;8.204;2024-01-10T09:09:13;56.37;45.14;68.45;;
48967;Laerm;46511;53.148;8.204;2024-01-10T09:11:44;54.33;43.77;69.92;;
48967;Laerm;46511;53.148;8.204;2024-01-10T09:14:16;57.66;44.47;68.78;;
48967;Laerm;46511;53.148;8.204;2024-01-10T09:16:47;46.95;43.99;55.21;;
48967;Laerm;46511;53.148;8.204;2024-01-10T09:19:18;58.54;44.03;72.95;;
48967;Laerm;46511;53.148;8.204;2024-01-10T09:21:49;57.69;43.81;68.92;;
48967;Laerm;46511;53.148;8.204;2024-01-10T09:24:23;57.37;44.15;68.91;;
48967;Laerm;46511;53.148;8.204;2024-01-10T09:26:57;53.97;43.58;66.19;;
48967;Laerm;46511;53.148;8.204;2024-01-10T09:29:28;57.12;44.65;70.72;;
48967;Laerm;46511;53.148;8.204;2024-01-10T09:31:54;54.70;43.58;64.22;;
48967;Laerm;46511;53.148;8.204;2024-01-10T09:34:26;55.71;44.20;66.48;;
48967;Laerm;46511;53.148;8.204;2024-01-10T09:36:57;55.16;44.27;65.16;;
48967;Laerm;46511;53.148;8.204;2024-01-10T09:39:28;54.25;43.90;67.60;;
48967;Laerm;46511;53.148;8.204;2024-01-10T09:42:00;54.29;43.68;67.68;;
48967;Laerm;46511;53.148;8.204;2024-01-10T09:44:33;58.15;44.31;69.58;;
48967;Laerm;46511;53.148;8.204;2024-01-10T09:47:04;58.63;43.90;70.51;;
48967;Laerm;46511;53.148;8.204;2024-01-10T09:49:36;56.36;44.35;66.87;;
48967;Laerm;46511;53.148;8.204;2024-01-10T09:52:10;58.66;45.48;68.90;;
48967;Laerm;46511;53.148;8.204;2024-01-10T09:54:42;57.61;44.58;71.78;;
48967;Laerm;46511;53.148;8.204;2024-01-10T09:57:16;56.02;43.86;68.62;;
48967;Laerm;46511;53.148;8.204;2024-01-10T09:59:47;52.90;42.98;66.11;;
48967;Laerm;46511;53.148;8.204;2024-01-10T10:02:19;58.30;43.99;73.37;;
48967;Laerm;46511;53.148;8.204;2024-01-10T10:04:56;58.17;44.15;67.66;;
48967;Laerm;46511;53.148;8.204;2024-01-10T10:07:43;59.67;43.19;73.33;;
48967;Laerm;46511;53.148;8.204;2024-01-10T10:10:16;56.11;43.19;67.89;;
48967;Laerm;46511;53.148;8.204;2024-01-10T10:12:50;56.73;43.39;67.98;;
48967;Laerm;46511;53.148;8.204;2024-01-10T10:15:24;58.01;43.90;69.89;;
48967;Laerm;46511;53.148;8.204;2024-01-10T10:17:54;57.33;44.03;70.33;;
48967;Laerm;46511;53.148;8.204;2024-01-10T10:20:30;59.59;43.63;72.54;;
48967;Laerm;46511;53.148;8.204;2024-01-10T10:23:08;56.79;43.99;67.47;;
48967;Laerm;46511;53.148;8.204;2024-01-10T10:25:44;56.42;43.94;66.58;;
48967;Laerm;46511;53.148;8.204;2024-01-10T10:28:16;56.06;43.39;66.79;;
48967;Laerm;46511;53.148;8.204;2024-01-10T10:30:47;54.40;43.49;64.61;;
48967;Laerm;46511;53.148;8.204;2024-01-10T10:33:19;57.46;43.63;69.60;;
48967;Laerm;46511;53.148;8.204;2024-01-10T10:35:52;56.73;44.54;65.40;;
48967;Laerm;46511;53.148;8.204;2024-01-10T10:38:24;58.08;43.72;67.86;;
48967;Laerm;46511;53.148;8.204;2024-01-10T10:40:50;57.28;43.68;76.10;;
48967;Laerm;46511;53.148;8.204;2024-01-10T10:43:22;56.88;43.81;68.39;;
48967;Laerm;46511;53.148;8.204;2024-01-10T10:45:55;54.93;44.31;68.68;;
48967;Laerm;46511;53.148;8.204;2024-01-10T10:48:23;56.50;43.90;68.07;;
48967;Laerm;46511;53.148;8.204;2024-01-10T10:51:08;55.71;44.62;69.28;;
48967;Laerm;46511;53.148;8.204;2024-01-10T10:53:42;58.24;45.91;68.69;;
48967;Laerm;46511;53.148;8.204;2024-01-10T10:56:17;55.43;44.35;66.58;;
48967;Laerm;46511;53.148;8.204;2024-01-10T10:58:49;56.12;44.01;72.75;;
48967;Laerm;46511;53.148;8.204;2024-01-10T11:01:23;57.95;43.81;69.16;;
48967;Laerm;46511;53.148;8.204;2024-01-10T11:03:54;57.74;44.58;68.91;;
48967;Laerm;46511;53.148;8.204;2024-01-10T11:06:26;54.48;43.34;64.06;;
48967;Laerm;46511;53.148;8.204;2024-01-10T11:09:05;56.32;43.09;71.11;;
48967;Laerm;46511;53.148;8.204;2024-01-10T11:14:47;57.44;43.29;70.03;;
48967;Laerm;46511;53.148;8.204;2024-01-10T11:17:48;56.88;43.00;72.28;;
48967;Laerm;46511;53.148;8.204;2024-01-10T11:23:37;55.96;43.24;70.36;;
48967;Laerm;46511;53.148;8.204;2024-01-10T11:26:08;57.42;43.99;69.67;;
48967;Laerm;46511;53.148;8.204;2024-01-10T11:28:40;57.33;43.14;71.38;;
48967;Laerm;46511;53.148;8.204;2024-01-10T11:31:13;56.82;43.39;70.13;;
48967;Laerm;46511;53.148;8.204;2024-01-10T11:33:46;56.19;43.39;70.39;;
48967;Laerm;46511;53.148;8.204;2024-01-10T11:36:20;57.28;43.68;71.37;;
48967;Laerm;46511;53.148;8.204;2024-01-10T11:38:59;55.61;43.77;65.54;;
48967;Laerm;46511;53.148;8.204;2024-01-10T11:41:35;57.84;44.23;74.49;;
48967;Laerm;46511;53.148;8.204;2024-01-10T11:46:42;55.60;43.77;66.65;;
48967;Laerm;46511;53.148;8.204;2024-01-10T11:49:18;57.91;43.90;71.41;;
48967;Laerm;46511;53.148;8.204;2024-01-10T11:51:54;57.86;43.29;69.35;;
48967;Laerm;46511;53.148;8.204;2024-01-10T11:54:39;57.45;42.76;70.11;;
48967;Laerm;46511;53.148;8.204;2024-01-10T11:57:20;58.74;43.68;68.28;;
48967;Laerm;46511;53.148;8.204;2024-01-10T11:59:54;58.83;43.14;76.42;;
48967;Laerm;46511;53.148;8.204;2024-01-10T12:02:26;54.56;43.24;68.84;;
48967;Laerm;46511;53.148;8.204;2024-01-10T12:04:59;55.93;43.39;66.83;;
48967;Laerm;46511;53.148;8.204;2024-01-10T12:07:30;58.40;43.29;70.36;;
48967;Laerm;46511;53.148;8.204;2024-01-10T12:10:01;56.48;43.94;64.61;;
48967;Laerm;46511;53.148;8.204;2024-01-10T12:12:34;56.26;43.54;67.27;;
48967;Laerm;46511;53.148;8.204;2024-01-10T12:15:05;56.61;43.04;68.79;;
48967;Laerm;46511;53.148;8.204;2024-01-10T12:17:37;53.33;43.34;65.93;;
48967;Laerm;46511;53.148;8.204;2024-01-10T12:20:08;58.39;43.86;73.39;;
48967;Laerm;46511;53.148;8.204;2024-01-10T12:22:40;53.43;43.86;64.79;;
48967;Laerm;46511;53.148;8.204;2024-01-10T12:25:14;55.89;43.68;66.04;;
48967;Laerm;46511;53.148;8.204;2024-01-10T12:27:46;55.64;42.88;69.33;;
48967;Laerm;46511;53.148;8.204;2024-01-10T12:30:17;50.46;42.16;64.20;;
48967;Laerm;46511;53.148;8.204;2024-01-10T12:32:50;57.79;43.54;73.36;;
48967;Laerm;46511;53.148;8.204;2024-01-10T12:35:17;57.25;43.58;71.61;;
48967;Laerm;46511;53.148;8.204;2024-01-10T12:37:54;55.99;45.45;66.86;;
48967;Laerm;46511;53.148;8.204;2024-01-10T12:40:27;57.05;43.09;74.10;;
48967;Laerm;46511;53.148;8.204;2024-01-10T12:43:05;57.48;44.07;69.90;;
48967;Laerm;46511;53.148;8.204;2024-01-10T12:45:36;55.26;43.54;63.47;;
48967;Laerm;46511;53.148;8.204;2024-01-10T12:48:13;57.76;43.29;69.73;;
48967;Laerm;46511;53.148;8.204;2024-01-10T12:50:45;57.51;43.34;75.46;;
48967;Laerm;46511;53.148;8.204;2024-01-10T12:53:16;58.08;42.82;70.08;;
48967;Laerm;46511;53.148;8.204;2024-01-10T12:55:47;55.90;44.35;65.19;;
48967;Laerm;46511;53.148;8.204;2024-01-10T12:58:19;54.66;43.58;66.33;;
48967;Laerm;46511;53.148;8.204;2024-01-10T13:00:51;57.38;43.63;69.31;;
48967;Laerm;46511;53.148;8.204;2024-01-10T13:03:24;54.35;43.76;64.73;;
48967;Laerm;46511;53.148;8.204;2024-01-10T13:05:56;58.71;46.48;67.65;;
48967;Laerm;46511;53.148;8.204;2024-01-10T13:08:27;56.83;43.19;69.75;;
48967;Laerm;46511;53.148;8.204;2024-01-10T13:10:58;55.39;43.81;66.10;;
48967;Laerm;46511;53.148;8.204;2024-01-10T13:13:33;53.04;43.58;68.30;;
48967;Laerm;46511;53.148;8.204;2024-01-10T13:16:04;54.14;43.63;72.31;;
48967;Laerm;46511;53.148;8.204;2024-01-10T13:18:39;57.17;43.94;76.32;;
48967;Laerm;46511;53.148;8.204;2024-01-10T13:21:10;56.58;44.19;69.29;;
48967;Laerm;46511;53.148;8.204;2024-01-10T13:23:43;58.09;44.87;72.82;;
48967;Laerm;46511;53.148;8.204;2024-01-10T13:26:15;57.27;43.86;72.51;;
48967;Laerm;46511;53.148;8.204;2024-01-10T13:28:46;55.57;42.79;67.47;;
48967;Laerm;46511;53.148;8.204;2024-01-10T13:31:17;56.19;43.19;67.78;;
48967;Laerm;46511;53.148;8.204;2024-01-10T13:33:49;58.15;44.07;70.02;;
48967;Laerm;46511;53.148;8.204;2024-01-10T13:36:21;58.85;43.54;73.07;;
48967;Laerm;46511;53.148;8.204;2024-01-10T13:38:52;55.43;43.58;65.35;;
48967;Laerm;46511;53.148;8.204;2024-01-10T13:41:24;57.98;43.77;68.27;;
48967;Laerm;46511;53.148;8.204;2024-01-10T13:43:55;56.71;43.54;67.77;;
48967;Laerm;46511;53.148;8.204;2024-01-10T13:46:26;57.68;43.81;71.37;;
48967;Laerm;46511;53.148;8.204;2024-01-10T13:48:53;57.59;44.27;74.53;;
48967;Laerm;46511;53.148;8.204;2024-01-10T13:51:24;56.23;43.90;69.75;;
48967;Laerm;46511;53.148;8.204;2024-01-10T13:53:56;57.44;43.63;68.65;;
48967;Laerm;46511;53.148;8.204;2024-01-10T13:56:27;54.23;43.34;66.14;;
48967;Laerm;46511;53.148;8.204;2024-01-10T13:58:59;57.97;43.90;69.07;;
48967;Laerm;46511;53.148;8.204;2024-01-10T14:01:30;56.74;43.99;67.68;;
48967;Laerm;46511;53.148;8.204;2024-01-10T14:04:02;57.32;44.07;67.67;;
48967;Laerm;46511;53.148;8.204;2024-01-10T14:06:34;51.42;43.19;67.34;;
48967;Laerm;46511;53.148;8.204;2024-01-10T14:09:05;58.93;44.52;69.64;;
48967;Laerm;46511;53.148;8.204;2024-01-10T14:11:38;60.23;43.77;72.54;;
48967;Laerm;46511;53.148;8.204;2024-01-10T14:14:09;54.23;43.14;68.32;;
48967;Laerm;46511;53.148;8.204;2024-01-10T14:16:40;58.99;44.94;67.94;;
48967;Laerm;46511;53.148;8.204;2024-01-10T14:19:12;55.86;44.23;65.21;;